Hlavní strana
METAR-TAF:

METAR-TAF

Letiště :

Litchfield Municipal Airport

Litchfield, Illinois, Spojené státy americké

zeměpisná šířka: 39-09-44N, zeměpisná délka: 089-40-28W, výška: 210 m

Aktuální stav počasí

Zpráva byla vytvořena před 29 minutami, v 07:35 UTC
Bezvětří
Teplota 17°C
Vlhkost vzduchu 94%
Tlak 1014 hPa
Viditelnost: 16.1 km
Polojasno ve výšce 9000 ft
Polojasno ve výšce 11000 ft

METAR: K3LF 290735Z AUTO 00000KT 10SM SCT090 SCT110 17/16 A2994 RMK AO2 T01700164

Čas: 03:04 (08:04 UTC)


TAF: chybějící

Stav a předpovědi počasí z více než 4 000 letišť (zprávy METAR a TAF).

Červené a žluté tečky na mapě představují dostupné meteorologické stanice.

Když kurzor umístíte na tečku, zobrazí se název stanice.

Pak kliknutím zobrazíte stav a předpověď počasí.

Chcete-li změnit mapu, kliknutím na zelené tlačítko se znaménkem +mapu přiblížíte, kliknutím na zelené tlačítko se znaménkem – mapu oddálíte a kliknutím na zelené šipky přejdete na sousední mapy.


METAR-TAF: